Terminal Aerodrome Forecast
Issued by NWS Buffalo, NY

Home | Current Version | Previous Version | Text Only | Print | Product List | Glossary On
Versions: 1 2 3 4 5 6 7 8 9 10 11 12 13 14 15 16 17 18 19 20 21 22 23 24
000
FTUS41 KBUF 290535
TAFROC
TAF
KROC 290535Z 2906/3006 22006KT P6SM FEW090 BKN110
     FM290900 20005KT 5SM -SHRA VCTS BKN060CB
     FM291200 24006KT 5SM -SHRA VCTS BKN080CB
     FM291300 24006KT P6SM VCTS BKN090CB
     FM291800 23005KT P6SM VCSH BKN060
     FM292000 23005KT 4SM -SHRA VCTS OVC060CB
     FM292200 22005KT P6SM -SHRA VCTS SCT045CB OVC110
     FM300000 19005KT P6SM OVC100=

USA.gov is the U.S. government's official web portal to all federal, state and local government web resources and services.